Terminal Aerodrome Forecast
Issued by NWS

Home | Current Version | Previous Version | Graphics & Text | Print | Product List | Glossary On
Versions: 1 2 3 4 5 6 7 8 9 10 11 12 13 14 15 16 17 18 19 20 21
000
FTUS43 KICT 021725
TAFCNU
TAF
KCNU 021725Z 0218/0318 36008KT P6SM SCT015 BKN250
      TEMPO 0218/0221 BKN015
     FM022100 03009KT P6SM VCSH SCT030 BKN060
     FM030200 03007KT P6SM SCT060 BKN150
     FM030600 VRB03KT P6SM SCT250=

USA.gov is the U.S. government's official web portal to all federal, state and local government web resources and services.